FW2194 Weather Reports


time (UTC)temp
F
wind
direction
speed
knots
gust
knots
rain 1hr
in
rain 24hr
in
rain mn
in
humidity
%
barometer
mb
20220124114902 28 328 0.9 1.7 0.00 0.00 0.00 71 1014.3
20220124114402 28 328 0.9 2.6 0.00 0.00 0.00 70 1013.9
20220124113902 28 325 0.9 2.6 0.00 0.00 0.00 70 1013.9
20220124113402 29 325 1.7 4.3 0.00 0.00 0.00 70 1013.9
20220124112902 29 351 1.7 4.3 0.00 0.00 0.00 70 1013.9
20220124112402 29 324 0.9 2.6 0.00 0.00 0.00 70 1013.9
20220124111902 29 327 0.9 1.7 0.00 0.00 0.00 70 1013.9
20220124111402 29 327 0.9 1.7 0.00 0.00 0.00 70 1013.7
20220124110902 30 327 0.0 0.9 0.00 0.00 0.00 69 1013.7
20220124110402 30 327 0.9 2.6 0.00 0.00 0.00 69 1013.7
20220124105902 30 327 0.0 2.6 0.00 0.00 0.00 69 1013.3
20220124105403 30 325 1.7 2.6 0.00 0.00 0.00 69 1013.3
20220124104903 31 332 2.6 2.6 0.00 0.00 0.00 69 1013.3
20220124104402 31 331 2.6 5.2 0.00 0.00 0.00 68 1013.3
20220124103902 31 313 2.6 4.3 0.00 0.00 0.00 68 1013.3
20220124103402 31 348 2.6 5.2 0.00 0.00 0.00 68 1013.3
20220124102902 31 332 2.6 6.1 0.00 0.00 0.00 68 1013.4
20220124102402 31 335 2.6 7.8 0.00 0.00 0.00 68 1013.4
20220124101903 31 2 4.3 8.7 0.00 0.00 0.00 69 1013.4
20220124101402 31 343 2.6 5.2 0.00 0.00 0.00 70 1013.2
20220124100902 31 335 2.6 5.2 0.00 0.00 0.00 69 1013.2
20220124100403 31 331 2.6 4.3 0.00 0.00 0.00 70 1013.2
20220124095902 32 317 3.5 7.8 0.00 0.00 0.00 69 1013.1
20220124095403 32 341 2.6 7.8 0.00 0.00 0.00 69 1013.1
20220124094902 32 307 2.6 7.0 0.00 0.00 0.00 70 1013.1
20220124094402 32 328 3.5 6.1 0.00 0.00 0.00 70 1012.7
20220124093902 32 345 2.6 8.7 0.00 0.00 0.00 71 1012.7
20220124093402 32 339 2.6 7.8 0.00 0.00 0.00 71 1012.7
20220124092903 32 353 4.3 10.4 0.00 0.00 0.00 71 1012.5
20220124092403 32 344 4.3 10.4 0.00 0.00 0.00 72 1012.5
20220124091902 32 328 4.3 10.4 0.00 0.00 0.00 72 1012.5
20220124091402 32 344 5.2 13.0 0.00 0.00 0.00 75 1012.2
20220124090903 33 339 4.3 11.3 0.00 0.00 0.00 80 1012.2
20220124090402 33 333 3.5 7.8 0.00 0.00 0.00 84 1012.2
20220124085902 33 317 2.6 4.3 0.00 0.00 0.00 85 1012.0
20220124085402 33 318 0.9 2.6 0.00 0.00 0.00 84 1012.0
20220124084903 33 288 0.9 2.6 0.00 0.00 0.00 84 1012.0
20220124084404 33 284 1.7 2.6 0.00 0.00 0.00 83 1012.1
20220124083902 33 305 1.7 2.6 0.00 0.00 0.00 83 1012.1
20220124083402 33 309 1.7 2.6 0.00 0.00 0.00 83 1012.1
20220124082903 33 325 1.7 2.6 0.00 0.00 0.00 82 1011.7
20220124082402 33 275 0.9 2.6 0.00 0.00 0.00 82 1011.7
20220124081903 33 302 1.7 2.6 0.00 0.00 0.00 82 1011.7
20220124081402 33 257 1.7 2.6 0.00 0.00 0.00 82 1011.7
20220124080903 33 246 0.9 2.6 0.00 0.00 0.00 82 1011.7
20220124080403 33 249 0.9 2.6 0.00 0.00 0.00 81 1011.7
20220124075903 33 265 0.9 2.6 0.00 0.00 0.00 81 1011.5
20220124075402 33 265 0.9 1.7 0.00 0.00 0.00 80 1011.5
20220124074903 33 265 0.9 2.6 0.00 0.00 0.00 80 1011.5
20220124074404 33 314 0.0 1.7 0.00 0.00 0.00 80 1011.2
20220124073903 34 314 0.0 1.7 0.00 0.00 0.00 79 1011.2
20220124073403 34 314 0.0 0.9 0.00 0.00 0.00 79 1011.2
20220124072903 34 314 0.0 0.9 0.00 0.00 0.00 79 1011.1
20220124072404 34 315 1.7 4.3 0.00 0.00 0.00 79 1011.1
20220124071902 34 260 0.9 2.6 0.00 0.00 0.00 79 1011.1
20220124071403 34 263 0.0 0.9 0.00 0.00 0.00 79 1010.7
20220124070903 34 263 0.9 0.9 0.00 0.00 0.00 78 1010.7
20220124070402 34 263 0.9 1.7 0.00 0.00 0.00 78 1010.7
20220124065904 34 263 0.9 2.6 0.00 0.00 0.00 78 1010.6
20220124065402 33 340 1.7 2.6 0.00 0.00 0.00 78 1010.6
20220124064903 33 313 0.9 1.7 0.00 0.00 0.00 78 1010.6
20220124064402 33 313 0.9 2.6 0.00 0.00 0.00 79 1010.6
20220124063903 33 297 0.9 1.7 0.00 0.00 0.00 79 1010.6
20220124063402 32 297 1.7 2.6 0.00 0.00 0.00 80 1010.6
20220124062903 31 305 0.0 2.6 0.00 0.00 0.00 80 1010.6
20220124062404 31 298 0.9 4.3 0.00 0.00 0.00 79 1010.6
20220124061902 31 170 0.0 0.0 0.00 0.00 0.00 79 1010.6
20220124061402 30 170 0.0 0.0 0.00 0.00 0.00 78 1010.6
20220124060902 30 170 0.0 0.0 0.00 0.00 0.00 78 1010.6
20220124060402 30 170 0.0 0.0 0.00 0.00 0.00 78 1010.6
20220124055903 30 170 0.0 0.0 0.00 0.00 0.00 78 1010.7
20220124055402 30 170 0.0 0.0 0.00 0.00 0.00 77 1010.7
20220124054903 30 170 0.0 0.0 0.00 0.00 0.00 77 1010.7
20220124054402 30 170 0.0 0.0 0.00 0.00 0.00 77 1010.6
20220124053903 30 170 0.0 1.7 0.00 0.00 0.00 77 1010.6
20220124053402 30 170 0.9 1.7 0.00 0.00 0.00 77 1010.6
20220124052903 30 170 0.9 1.7 0.00 0.00 0.00 79 1010.6
20220124052402 30 170 0.0 0.9 0.00 0.00 0.00 79 1010.6
20220124051903 30 170 0.0 0.9 0.00 0.00 0.00 80 1010.6
20220124051403 30 170 0.0 1.7 0.00 0.00 0.00 80 1010.6
20220124050902 30 170 0.9 1.7 0.00 0.00 0.00 79 1010.6
20220124050403 29 170 0.9 0.9 0.00 0.00 0.00 79 1010.6
20220124045902 29 170 0.0 0.9 0.00 0.00 0.00 78 1010.6
20220124045403 29 170 0.0 0.0 0.00 0.00 0.00 77 1010.6
20220124044902 30 170 0.0 1.7 0.00 0.00 0.00 77 1010.6
20220124044402 30 170 0.0 0.9 0.00 0.00 0.00 75 1010.3
20220124043903 30 170 0.0 0.0 0.00 0.00 0.00 74 1010.3
20220124043402 30 170 0.0 0.0 0.00 0.00 0.00 74 1010.3
20220124042903 30 170 0.0 0.0 0.00 0.00 0.00 74 1010.2
20220124042402 30 170 0.0 0.0 0.00 0.00 0.00 73 1010.2
20220124041903 31 170 0.0 0.0 0.00 0.00 0.00 73 1010.2
20220124041403 31 170 0.0 0.0 0.00 0.00 0.00 74 1010.3
20220124040903 31 170 0.0 2.6 0.00 0.00 0.00 74 1010.3
20220124040403 31 170 0.0 2.6 0.00 0.00 0.00 74 1010.3
20220124035903 31 170 0.0 0.0 0.00 0.00 0.00 75 1010.2
20220124035402 31 170 0.0 0.0 0.00 0.00 0.00 75 1010.2
20220124034903 31 170 0.9 1.7 0.00 0.00 0.00 74 1010.2
20220124034402 31 170 1.7 2.6 0.00 0.00 0.00 75 1010.2
20220124033905 31 170 0.9 1.7 0.00 0.00 0.00 75 1010.2
20220124033402 31 170 0.9 1.7 0.00 0.00 0.00 76 1010.2
20220124032903 31 170 0.9 1.7 0.00 0.00 0.00 75 1010.2
20220124032403 31 170 0.0 0.0 0.00 0.00 0.00 76 1010.2
20220124031902 31 170 0.0 0.0 0.00 0.00 0.00 77 1010.2
20220124031403 31 170 0.0 0.0 0.00 0.00 0.00 76 1010.2
20220124030903 31 170 0.0 0.0 0.00 0.00 0.00 75 1010.2
20220124030402 31 170 0.0 0.0 0.00 0.00 0.00 75 1010.2
20220124025902 31 170 0.0 0.0 0.00 0.00 0.00 75 1009.9
20220124025403 31 170 0.0 0.0 0.00 0.00 0.00 75 1009.9
20220124024903 31 170 0.0 0.0 0.00 0.00 0.00 74 1009.9
20220124024403 31 170 0.0 0.9 0.00 0.00 0.00 73 1009.8
20220124023903 31 170 0.0 1.7 0.00 0.00 0.00 74 1009.8
20220124023403 31 170 0.0 0.0 0.00 0.00 0.00 73 1009.8
20220124022904 32 170 0.0 0.0 0.00 0.00 0.00 73 1009.9
20220124022403 32 170 0.0 0.0 0.00 0.00 0.00 72 1009.9
20220124021902 32 170 0.0 0.0 0.00 0.00 0.00 73 1009.9
20220124021403 32 170 0.0 0.0 0.00 0.00 0.00 73 1010.1
20220124020903 32 170 0.0 0.0 0.00 0.00 0.00 73 1010.1
20220124020404 32 170 0.0 0.0 0.00 0.00 0.00 72 1010.1
20220124015903 32 170 0.0 0.0 0.00 0.00 0.00 71 1010.1
20220124015404 32 170 0.0 0.0 0.00 0.00 0.00 71 1010.1
20220124014903 32 170 0.0 0.9 0.00 0.00 0.00 69 1010.1
20220124014403 32 170 0.9 1.7 0.00 0.00 0.00 70 1010.1
20220124013903 32 170 0.0 1.7 0.00 0.00 0.00 69 1010.1
20220124013403 32 170 0.9 1.7 0.00 0.00 0.00 70 1010.1
20220124012903 32 170 0.0 0.0 0.00 0.00 0.00 70 1009.9
20220124012403 32 170 0.0 0.0 0.00 0.00 0.00 68 1009.9
20220124011903 32 170 0.0 0.9 0.00 0.00 0.00 67 1009.9
20220124011404 32 170 0.0 0.9 0.00 0.00 0.00 69 1009.9
20220124010902 32 170 0.0 0.0 0.00 0.00 0.00 69 1009.9
20220124010403 32 170 0.0 0.0 0.00 0.00 0.00 70 1009.9
20220124005903 33 170 0.0 0.0 0.00 0.00 0.00 67 1009.8
20220124005403 33 170 0.0 0.0 0.00 0.00 0.00 68 1009.8
20220124004902 33 170 0.0 0.0 0.00 0.00 0.00 67 1009.8
20220124004403 33 170 0.0 0.9 0.00 0.00 0.00 66 1009.6
20220124003902 33 170 0.9 1.7 0.00 0.00 0.00 65 1009.6
20220124003403 33 170 0.9 1.7 0.00 0.00 0.00 66 1009.6
20220124002903 33 170 0.0 0.0 0.00 0.00 0.00 64 1009.5
20220124002403 33 170 0.0 0.0 0.00 0.00 0.00 64 1009.5
20220124001903 33 170 0.0 0.0 0.00 0.00 0.00 63 1009.5
20220124001403 33 170 0.0 0.0 0.00 0.00 0.00 60 1009.4
20220124000903 33 170 0.0 0.0 0.00 0.00 0.00 62 1009.4
20220124000403 34 170 0.0 0.0 0.00 0.00 0.00 62 1009.4
20220123235904 34 170 0.0 0.0 0.00 0.00 0.00 61 1009.4
20220123235403 34 170 0.0 0.0 0.00 0.00 0.00 61 1009.4
20220123234905 34 170 0.0 0.0 0.00 0.00 0.00 61 1009.4
20220123234403 34 170 0.0 0.9 0.00 0.00 0.00 60 1009.5
20220123233903 34 170 0.0 1.7 0.00 0.00 0.00 59 1009.5
20220123233403 35 170 0.9 1.7 0.00 0.00 0.00 59 1009.5
20220123232903 35 170 0.9 1.7 0.00 0.00 0.00 56 1009.3
20220123232403 35 170 0.0 0.0 0.00 0.00 0.00 56 1009.3
20220123231904 35 170 0.0 0.9 0.00 0.00 0.00 56 1009.3
20220123231403 35 170 0.0 0.0 0.00 0.00 0.00 56 1009.2
20220123230903 35 170 0.0 0.9 0.00 0.00 0.00 53 1009.2
20220123230403 36 170 0.0 0.9 0.00 0.00 0.00 56 1009.2
20220123225903 36 170 0.0 0.9 0.00 0.00 0.00 52 1009.1
20220123225403 36 170 0.0 0.9 0.00 0.00 0.00 52 1009.1
20220123224903 36 170 0.0 2.6 0.00 0.00 0.00 52 1009.1
20220123224403 36 170 0.9 2.6 0.00 0.00 0.00 52 1009.1
20220123223903 36 170 0.9 1.7 0.00 0.00 0.00 52 1009.1
20220123223402 36 170 0.9 2.6 0.00 0.00 0.00 52 1009.1
20220123222903 36 170 0.9 2.6 0.00 0.00 0.00 52 1009.1
20220123222403 36 170 0.9 2.6 0.00 0.00 0.00 53 1009.1
20220123221903 36 198 1.7 6.1 0.00 0.00 0.00 52 1009.1
20220123221403 36 188 1.7 4.3 0.00 0.00 0.00 52 1009.2
20220123220903 36 202 0.9 2.6 0.00 0.00 0.00 52 1009.2
20220123220403 37 163 1.7 2.6 0.00 0.00 0.00 52 1009.2
20220123215903 37 161 0.9 2.6 0.00 0.00 0.00 51 1009.2
20220123215403 37 161 0.9 2.6 0.00 0.00 0.00 51 1009.2
20220123214903 37 163 1.7 2.6 0.00 0.00 0.00 50 1009.2
20220123214403 37 160 1.7 2.6 0.00 0.00 0.00 50 1009.3
20220123213903 37 155 1.7 2.6 0.00 0.00 0.00 51 1009.3
20220123213403 37 155 0.9 2.6 0.00 0.00 0.00 51 1009.3
20220123212903 37 155 1.7 2.6 0.00 0.00 0.00 50 1009.4
20220123212403 37 152 0.9 2.6 0.00 0.00 0.00 50 1009.4
20220123211903 37 191 2.6 4.3 0.00 0.00 0.00 50 1009.4
20220123211403 37 161 1.7 2.6 0.00 0.00 0.00 49 1009.6
20220123210903 37 149 0.9 2.6 0.00 0.00 0.00 50 1009.6
20220123210403 37 198 0.9 2.6 0.00 0.00 0.00 51 1009.6
20220123205903 37 198 1.7 4.3 0.00 0.00 0.00 51 1009.8
20220123205403 37 194 1.7 4.3 0.00 0.00 0.00 49 1009.8
20220123204903 37 200 2.6 2.6 0.00 0.00 0.00 49 1009.8
20220123204403 37 133 1.7 4.3 0.00 0.00 0.00 49 1009.9
20220123203904 37 206 1.7 2.6 0.00 0.00 0.00 50 1009.9
20220123203403 37 206 2.6 4.3 0.00 0.00 0.00 49 1009.9
20220123202903 37 209 2.6 5.2 0.00 0.00 0.00 49 1010.0
20220123202404 37 190 3.5 6.1 0.00 0.00 0.00 48 1010.0
20220123201903 37 173 0.9 5.2 0.00 0.00 0.00 48 1010.0
20220123201403 37 190 1.7 2.6 0.00 0.00 0.00 48 1010.0
20220123200903 37 199 3.5 8.7 0.00 0.00 0.00 48 1010.0
20220123200403 37 198 4.3 6.1 0.00 0.00 0.00 47 1010.0
20220123195904 38 172 3.5 7.8 0.00 0.00 0.00 47 1010.1
20220123195403 38 200 3.5 6.1 0.00 0.00 0.00 47 1010.1
20220123194903 38 189 4.3 10.4 0.00 0.00 0.00 47 1010.1
20220123194405 38 179 2.6 7.8 0.00 0.00 0.00 47 1010.3
20220123193903 38 220 1.7 4.3 0.00 0.00 0.00 48 1010.3
20220123193403 38 205 3.5 8.7 0.00 0.00 0.00 46 1010.3
20220123192903 38 211 1.7 6.1 0.00 0.00 0.00 49 1010.8
20220123192404 38 219 2.6 7.8 0.00 0.00 0.00 48 1010.8
20220123191903 38 147 2.6 5.2 0.00 0.00 0.00 47 1010.8
20220123191403 38 155 2.6 6.1 0.00 0.00 0.00 47 1011.1
20220123190903 38 190 2.6 6.1 0.00 0.00 0.00 49 1011.1
20220123190403 38 158 1.7 4.3 0.00 0.00 0.00 49 1011.1
20220123185903 38 173 1.7 4.3 0.00 0.00 0.00 48 1011.4
20220123185404 37 192 1.7 5.2 0.00 0.00 0.00 48 1011.4
20220123184903 37 172 2.6 6.1 0.00 0.00 0.00 49 1011.4
20220123184403 37 213 4.3 7.8 0.00 0.00 0.00 49 1011.4
20220123183903 37 193 4.3 8.7 0.00 0.00 0.00 49 1011.4
20220123183403 37 190 4.3 7.8 0.00 0.00 0.00 47 1011.4
20220123182903 38 179 3.5 6.1 0.00 0.00 0.00 48 1011.8
20220123182403 38 201 2.6 8.7 0.00 0.00 0.00 49 1011.8
20220123181905 38 202 4.3 10.4 0.00 0.00 0.00 47 1011.8
20220123181403 38 182 2.6 5.2 0.00 0.00 0.00 48 1011.9
20220123180903 38 219 3.5 7.0 0.00 0.00 0.00 47 1011.9
20220123180403 38 194 4.3 10.4 0.00 0.00 0.00 47 1011.9
20220123175903 38 180 2.6 10.4 0.00 0.00 0.00 47 1012.4
20220123175403 38 143 4.3 7.8 0.00 0.00 0.00 46 1012.4
20220123174903 38 205 2.6 5.2 0.00 0.00 0.00 48 1012.4
20220123174403 37 194 1.7 5.2 0.00 0.00 0.00 48 1012.8
20220123173903 37 189 3.5 5.2 0.00 0.00 0.00 48 1012.8
20220123173403 37 179 2.6 5.2 0.00 0.00 0.00 46 1012.8
20220123172903 37 154 4.3 8.7 0.00 0.00 0.00 47 1013.0
20220123172405 37 198 5.2 7.8 0.00 0.00 0.00 46 1013.0
20220123171904 36 185 3.5 5.2 0.00 0.00 0.00 47 1013.0
20220123171403 36 209 2.6 7.8 0.00 0.00 0.00 50 1013.3
20220123170904 36 194 2.6 7.8 0.00 0.00 0.00 46 1013.3
20220123170405 36 178 2.6 7.0 0.00 0.00 0.00 47 1013.3
20220123165904 35 193 3.5 6.1 0.00 0.00 0.00 46 1013.9
20220123165403 35 194 2.6 4.3 0.00 0.00 0.00 47 1013.9
20220123164905 35 141 1.7 5.2 0.00 0.00 0.00 46 1013.9
20220123163902 35 163 2.6 5.2 0.00 0.00 0.00 44 1013.9
20220123163403 35 166 1.7 5.2 0.00 0.00 0.00 46 1013.9
20220123162903 35 164 1.7 2.6 0.00 0.00 0.00 47 1014.4
20220123162403 35 116 2.6 5.2 0.00 0.00 0.00 45 1014.4
20220123161903 35 206 3.5 6.1 0.00 0.00 0.00 48 1014.4
20220123161403 35 214 2.6 6.1 0.00 0.00 0.00 48 1014.7
20220123160902 35 188 4.3 7.8 0.00 0.00 0.00 48 1014.7
20220123160402 35 218 2.6 6.1 0.00 0.00 0.00 49 1014.7
20220123155903 34 158 1.7 2.6 0.00 0.00 0.00 50 1014.9
20220123155403 34 179 2.6 4.3 0.00 0.00 0.00 52 1014.9
20220123154902 33 182 2.6 4.3 0.00 0.00 0.00 52 1014.9
20220123154403 33 184 2.6 4.3 0.00 0.00 0.00 53 1015.1
20220123153902 32 200 1.7 6.1 0.00 0.00 0.00 55 1015.1
20220123153403 31 176 2.6 5.2 0.00 0.00 0.00 57 1015.1
20220123152902 31 183 2.6 4.3 0.00 0.00 0.00 55 1015.3
20220123152403 31 202 2.6 4.3 0.00 0.00 0.00 57 1015.3
20220123151903 30 198 1.7 6.1 0.00 0.00 0.00 61 1015.3
20220123151403 30 196 1.7 6.1 0.00 0.00 0.00 62 1015.6
20220123150903 29 182 1.7 4.3 0.00 0.00 0.00 62 1015.6
20220123150403 28 167 1.7 2.6 0.00 0.00 0.00 63 1015.6
20220123145903 28 171 1.7 2.6 0.00 0.00 0.00 65 1015.7
20220123145403 27 173 1.7 4.3 0.00 0.00 0.00 65 1015.7
20220123144905 26 190 1.7 2.6 0.00 0.00 0.00 66 1015.7
20220123144403 26 184 2.6 4.3 0.00 0.00 0.00 67 1016.0
20220123143903 25 193 2.6 4.3 0.00 0.00 0.00 69 1016.0
20220123143403 24 218 1.7 2.6 0.00 0.00 0.00 71 1016.0
20220123142903 23 219 0.9 1.7 0.00 0.00 0.00 73 1016.2
20220123142404 23 218 0.9 2.6 0.00 0.00 0.00 75 1016.2
20220123141903 22 283 0.0 0.0 0.00 0.00 0.00 77 1016.2
20220123141403 22 283 0.0 0.0 0.00 0.00 0.00 76 1016.2
20220123140904 22 283 0.0 0.0 0.00 0.00 0.00 76 1016.2
20220123135904 22 283 0.0 0.9 0.00 0.00 0.00 80 1016.6
20220123135405 21 283 0.9 0.9 0.00 0.00 0.00 80 1016.6
20220123132904 20 283 0.0 0.0 0.00 0.00 0.00 84 1016.9
20220123132404 20 283 0.0 0.0 0.00 0.00 0.00 84 1016.9
20220123131903 20 283 0.0 0.0 0.00 0.00 0.00 84 1016.9
20220123131403 19 283 0.0 1.7 0.00 0.00 0.00 85 1017.2
20220123130903 19 298 0.9 1.7 0.00 0.00 0.00 85 1017.2
20220123130404 19 298 0.0 0.0 0.00 0.00 0.00 85 1017.2
20220123125903 19 298 0.0 0.0 0.00 0.00 0.00 84 1017.3
20220123125405 19 298 0.0 0.0 0.00 0.00 0.00 84 1017.3
20220123124903 18 298 0.0 0.9 0.00 0.00 0.00 84 1017.3
20220123124403 18 298 0.0 0.9 0.00 0.00 0.00 84 1017.3
20220123123903 18 298 0.0 0.0 0.00 0.00 0.00 84 1017.3
20220123123404 18 298 0.0 0.0 0.00 0.00 0.00 83 1017.3
20220123122903 18 298 0.0 0.0 0.00 0.00 0.00 83 1017.6
20220123122403 18 298 0.0 0.0 0.00 0.00 0.00 82 1017.6
20220123121903 18 298 0.0 0.0 0.00 0.00 0.00 83 1017.6
20220123121403 18 298 0.0 0.0 0.00 0.00 0.00 82 1017.5
20220123120904 18 298 0.0 0.0 0.00 0.00 0.00 82 1017.5
20220123120403 18 298 0.0 0.0 0.00 0.00 0.00 82 1017.5
20220123115903 18 298 0.0 0.0 0.00 0.00 0.00 81 1017.6
20220123115403 18 298 0.0 0.0 0.00 0.00 0.00 81 1017.6